Time;durP1;ratioP1;P1;durP2;ratioP2;P2;SDS_P1;SDS_P2;PMS_P1;PMS_P2;Temp;Humidity;BMP_temperature;BMP_pressure;BME280_temperature;BME280_humidity;BME280_pressure;Samples;Min_cycle;Max_cycle;Signal;HPM_P1;HPM_P2
2021/12/14 00:02:14;;;;;;;14.77;11.07;;;5.20;81.40;;;;;;5076657;28;20552;-60
2021/12/14 00:04:42;;;;;;;14.15;10.30;;;5.10;81.50;;;;;;5076658;28;20048;-60
2021/12/14 00:07:11;;;;;;;15.20;10.13;;;5.00;81.60;;;;;;5081009;28;20387;-61
2021/12/14 00:09:40;;;;;;;13.70;9.68;;;5.00;81.90;;;;;;5090962;28;20059;-60
2021/12/14 00:15:06;;;;;;;13.50;10.35;;;5.00;82.20;;;;;;5076568;28;20051;-61
2021/12/14 00:17:37;;;;;;;15.30;10.32;;;4.90;82.10;;;;;;5076435;28;20043;-59
2021/12/14 00:20:30;;;;;;;13.68;10.95;;;4.90;82.20;;;;;;5076719;28;20036;-61
2021/12/14 00:25:46;;;;;;;14.10;10.35;;;4.90;82.70;;;;;;5076492;28;20039;-60
2021/12/14 00:28:20;;;;;;;14.25;11.25;;;4.90;82.70;;;;;;5076389;28;20020;-61
2021/12/14 00:30:48;;;;;;;13.55;10.57;;;4.80;83.00;;;;;;5075289;28;20056;-59
2021/12/14 00:33:16;;;;;;;15.38;12.02;;;4.80;83.00;;;;;;5076172;28;20032;-61
2021/12/14 00:35:42;;;;;;;14.75;11.02;;;4.80;83.00;;;;;;5093419;28;20446;-60
2021/12/14 00:38:10;;;;;;;15.13;11.48;;;4.80;83.30;;;;;;5096388;28;20036;-60
2021/12/14 00:40:39;;;;;;;14.15;11.15;;;4.80;83.30;;;;;;5093237;28;20051;-61
2021/12/14 00:43:06;;;;;;;16.40;12.18;;;4.80;83.20;;;;;;5075762;28;20025;-60
2021/12/14 00:45:35;;;;;;;13.98;10.73;;;4.80;83.30;;;;;;5076063;28;20047;-60
2021/12/14 00:48:01;;;;;;;15.77;11.35;;;4.80;83.00;;;;;;5076148;28;20430;-60
2021/12/14 00:50:29;;;;;;;14.52;10.25;;;4.80;82.90;;;;;;5092901;28;20120;-60
2021/12/14 00:52:55;;;;;;;11.90;10.00;;;4.90;82.90;;;;;;5096001;28;20035;-60
2021/12/14 00:55:27;;;;;;;13.50;10.10;;;4.90;83.00;;;;;;5095893;28;20024;-60
2021/12/14 00:57:54;;;;;;;17.15;10.52;;;4.90;82.80;;;;;;5095129;28;20024;-60
2021/12/14 01:00:25;;;;;;;13.00;9.30;;;4.90;83.10;;;;;;5095756;28;20521;-59
2021/12/14 01:02:51;;;;;;;;;;;4.90;82.90;;;;;;5096661;28;20078;-60
2021/12/14 01:05:26;;;;;;;15.68;12.38;;;4.80;82.40;;;;;;5078421;28;20345;-59
2021/12/14 01:07:52;;;;;;;13.05;10.10;;;4.80;83.00;;;;;;5075808;28;20353;-60
2021/12/14 01:10:24;;;;;;;13.95;10.02;;;4.80;83.00;;;;;;5075589;28;20082;-60
2021/12/14 01:12:54;;;;;;;11.75;9.82;;;4.80;82.90;;;;;;5075219;28;20032;-60
2021/12/14 01:24:00;;;;;;;11.25;9.50;;;4.70;83.00;;;;;;5095601;28;20047;-59
2021/12/14 01:26:26;;;;;;;12.90;9.38;;;4.70;83.20;;;;;;5095304;28;20052;-60
2021/12/14 01:28:52;;;;;;;14.70;10.23;;;4.60;83.20;;;;;;5085901;28;20032;-60
2021/12/14 01:31:27;;;;;;;13.65;10.15;;;4.60;83.40;;;;;;5074503;28;20035;-60
2021/12/14 01:34:02;;;;;;;16.38;10.65;;;4.70;83.50;;;;;;5074987;28;20055;-60
2021/12/14 01:36:41;;;;;;;14.13;10.40;;;4.70;83.30;;;;;;5074831;28;20026;-60
2021/12/14 01:41:57;;;;;;;13.23;10.52;;;4.70;83.50;;;;;;5043361;28;20028;-60
2021/12/14 01:44:26;;;;;;;12.82;10.25;;;4.60;83.40;;;;;;5074596;28;20459;-60
2021/12/14 01:46:57;;;;;;;13.55;9.45;;;4.60;83.60;;;;;;5074690;28;20454;-59
2021/12/14 01:49:26;;;;;;;12.02;8.75;;;4.60;83.40;;;;;;5092750;28;20381;-60
2021/12/14 01:51:54;;;;;;;12.88;10.00;;;4.60;83.60;;;;;;5094567;28;20039;-60
2021/12/14 01:54:24;;;;;;;14.45;10.57;;;4.60;83.60;;;;;;5094687;28;20435;-59
2021/12/14 01:56:51;;;;;;;13.70;10.43;;;4.60;83.60;;;;;;5094789;28;20028;-60
2021/12/14 01:59:27;;;;;;;13.10;9.07;;;4.60;83.50;;;;;;5093683;28;20038;-59
2021/12/14 02:02:09;;;;;;;13.95;10.63;;;4.70;83.80;;;;;;5091609;28;20035;-60
2021/12/14 02:04:40;;;;;;;13.65;9.70;;;4.70;83.70;;;;;;5074194;28;20036;-59
2021/12/14 02:07:08;;;;;;;11.60;9.13;;;4.70;83.50;;;;;;5074257;28;20025;-61
2021/12/14 02:09:35;;;;;;;13.38;10.15;;;4.70;83.30;;;;;;5080492;28;20024;-60
2021/12/14 02:12:11;;;;;;;13.32;10.70;;;4.70;83.10;;;;;;5090715;28;20115;-60
2021/12/14 02:14:37;;;;;;;13.40;10.15;;;4.70;83.30;;;;;;5093623;28;20042;-60
2021/12/14 02:17:08;;;;;;;13.43;9.70;;;4.70;83.10;;;;;;5093855;28;20028;-59
2021/12/14 02:19:34;;;;;;;13.10;10.10;;;4.70;83.10;;;;;;5094113;28;20116;-60
2021/12/14 02:22:00;;;;;;;15.70;10.68;;;4.70;83.00;;;;;;5093826;28;20044;-59
2021/12/14 02:24:28;;;;;;;15.45;10.70;;;4.70;83.20;;;;;;5093972;28;20502;-61
2021/12/14 02:26:55;;;;;;;14.07;10.65;;;4.70;83.00;;;;;;5094252;28;20024;-60
2021/12/14 02:29:36;;;;;;;15.02;9.20;;;4.70;83.00;;;;;;5093269;28;20040;-60
2021/12/14 02:32:16;;;;;;;16.08;11.75;;;4.70;83.00;;;;;;5094158;28;20032;-60
2021/12/14 02:34:51;;;;;;;14.13;10.73;;;4.60;82.90;;;;;;5086705;28;20366;-59
2021/12/14 02:37:23;;;;;;;15.50;12.25;;;4.60;83.10;;;;;;5073620;28;20074;-60
2021/12/14 02:40:02;;;;;;;17.10;13.05;;;4.70;83.30;;;;;;5072996;28;20037;-60
2021/12/14 02:42:30;;;;;;;16.55;12.70;;;4.70;83.20;;;;;;5073526;28;20027;-59
2021/12/14 02:44:58;;;;;;;19.05;13.02;;;4.70;83.00;;;;;;5079464;28;20368;-61
2021/12/14 02:47:24;;;;;;;18.48;12.95;;;4.70;83.00;;;;;;5073688;28;20013;-61
2021/12/14 02:49:50;;;;;;;20.60;13.80;;;4.70;83.10;;;;;;5076105;28;20029;-60
2021/12/14 02:52:30;;;;;;;18.60;13.00;;;4.70;83.10;;;;;;5094018;28;20480;-60
2021/12/14 02:55:26;;;;;;;20.70;14.32;;;4.70;83.30;;;;;;5076820;28;20028;-61
2021/12/14 02:57:57;;;;;;;20.38;12.77;;;4.70;83.50;;;;;;5071574;28;20051;-60
2021/12/14 03:00:48;;;;;;;15.48;11.75;;;4.70;84.20;;;;;;5073657;28;20024;-60
2021/12/14 03:03:15;;;;;;;21.15;13.30;;;4.70;83.40;;;;;;5073529;28;20024;-60
2021/12/14 03:05:43;;;;;;;21.00;14.00;;;4.80;83.40;;;;;;5073730;28;20024;-59
2021/12/14 03:08:15;;;;;;;20.55;14.32;;;4.80;83.30;;;;;;5073494;28;20103;-60
2021/12/14 03:11:10;;;;;;;22.08;14.20;;;4.80;83.00;;;;;;5073800;28;20480;-60
2021/12/14 03:13:46;;;;;;;16.83;12.73;;;4.80;83.00;;;;;;5072118;28;20052;-60
2021/12/14 03:16:25;;;;;;;14.73;10.68;;;4.80;82.80;;;;;;5073899;28;20449;-60
2021/12/14 03:18:53;;;;;;;21.83;15.07;;;4.90;82.50;;;;;;5073498;28;20483;-60
2021/12/14 03:21:29;;;;;;;21.50;14.13;;;4.80;82.50;;;;;;5073246;28;20032;-59
2021/12/14 03:24:09;;;;;;;20.63;13.75;;;4.80;82.70;;;;;;5081385;28;20031;-60
2021/12/14 03:26:38;;;;;;;20.13;13.27;;;4.90;82.90;;;;;;5093545;28;20031;-59
2021/12/14 03:29:09;;;;;;;19.02;12.40;;;4.90;82.50;;;;;;5093508;28;20039;-61
2021/12/14 03:31:41;;;;;;;18.92;12.95;;;4.90;82.40;;;;;;5082914;28;21369;-60
2021/12/14 03:34:18;;;;;;;16.77;11.95;;;4.90;82.50;;;;;;5073274;28;20150;-60
2021/12/14 03:36:48;;;;;;;20.33;13.18;;;4.90;82.40;;;;;;5073169;28;20039;-60
2021/12/14 03:39:20;;;;;;;15.82;10.52;;;5.00;82.20;;;;;;5084243;28;20119;-60
2021/12/14 03:42:12;;;;;;;17.05;10.13;;;5.00;82.20;;;;;;5092148;28;20122;-61
2021/12/14 03:44:49;;;;;;;;;;;5.00;82.10;;;;;;5092631;28;20028;-60
2021/12/14 03:47:20;;;;;;;16.02;11.95;;;5.00;82.00;;;;;;5092780;28;19904;-60
2021/12/14 03:49:55;;;;;;;18.27;14.10;;;5.00;82.00;;;;;;5091615;28;20072;-60
2021/12/14 03:52:34;;;;;;;18.15;12.45;;;5.10;81.80;;;;;;5096283;28;20028;-60
2021/12/14 03:55:09;;;;;;;15.32;11.77;;;5.00;81.80;;;;;;5082029;28;20077;-59
2021/12/14 03:57:34;;;;;;;16.83;11.55;;;5.00;82.00;;;;;;5089089;28;20025;-59
2021/12/14 04:00:01;;;;;;;20.50;14.10;;;5.00;82.10;;;;;;5075070;28;20044;-61
2021/12/14 04:02:27;;;;;;;21.95;14.10;;;5.00;82.20;;;;;;5076412;28;20024;-60
2021/12/14 04:05:02;;;;;;;21.58;14.48;;;4.90;82.40;;;;;;5076490;28;20027;-59
2021/12/14 04:07:29;;;;;;;21.45;15.13;;;5.00;82.40;;;;;;5076649;28;20035;-60
2021/12/14 04:09:55;;;;;;;17.15;12.55;;;5.00;82.40;;;;;;5076082;28;20024;-60
2021/12/14 04:12:21;;;;;;;17.38;12.73;;;5.00;82.40;;;;;;5090404;28;20035;-61
2021/12/14 04:14:52;;;;;;;19.83;13.93;;;5.00;82.60;;;;;;5075274;28;20029;-60
2021/12/14 04:17:19;;;;;;;20.50;13.82;;;4.90;82.70;;;;;;5076345;28;20032;-60
2021/12/14 04:19:46;;;;;;;18.98;14.43;;;4.90;82.90;;;;;;5076188;28;20073;-61
2021/12/14 04:22:17;;;;;;;17.17;12.77;;;4.90;83.00;;;;;;5075999;28;20066;-60
2021/12/14 04:24:45;;;;;;;16.63;11.93;;;5.00;83.00;;;;;;5076404;28;20020;-60
2021/12/14 04:27:17;;;;;;;19.17;13.57;;;4.90;82.90;;;;;;5075924;28;20032;-60
2021/12/14 04:29:43;;;;;;;17.98;12.80;;;4.90;82.90;;;;;;5078859;28;20040;-61
2021/12/14 04:32:12;;;;;;;19.98;14.63;;;4.90;82.90;;;;;;5096347;28;20478;-60
2021/12/14 04:34:38;;;;;;;18.02;12.55;;;4.90;83.00;;;;;;5096156;28;20020;-59
2021/12/14 04:37:04;;;;;;;18.23;12.38;;;4.90;83.00;;;;;;5096256;28;20051;-61
2021/12/14 04:53:11;;;;;;;16.50;12.95;;;4.80;83.80;;;;;;5075804;28;20039;-60
2021/12/14 04:55:43;;;;;;;18.90;13.43;;;4.80;83.80;;;;;;5075504;28;20502;-60
2021/12/14 04:58:11;;;;;;;18.00;14.05;;;4.90;84.00;;;;;;5075599;28;20115;-61
2021/12/14 05:00:42;;;;;;;17.80;12.45;;;4.80;83.90;;;;;;5076400;28;20036;-60
2021/12/14 05:03:29;;;;;;;17.85;13.93;;;4.80;84.10;;;;;;5084932;28;20108;-60
2021/12/14 05:06:09;;;;;;;15.85;12.05;;;4.80;84.00;;;;;;5095520;28;20483;-60
2021/12/14 05:11:12;;;;;;;17.60;12.80;;;4.80;84.10;;;;;;5094395;28;20130;-60
2021/12/14 05:13:49;;;;;;;16.27;12.30;;;4.90;84.20;;;;;;5093299;28;20027;-61
2021/12/14 05:16:18;;;;;;;16.70;12.48;;;4.90;84.10;;;;;;5094452;28;20540;-58
2021/12/14 05:18:48;;;;;;;17.38;12.35;;;4.90;84.00;;;;;;5083123;28;20028;-61
2021/12/14 05:21:25;;;;;;;18.33;13.38;;;4.90;84.00;;;;;;5073530;28;20028;-60
2021/12/14 05:23:52;;;;;;;17.52;12.25;;;4.90;84.00;;;;;;5074963;28;20033;-60
2021/12/14 05:26:19;;;;;;;15.77;12.00;;;4.90;84.10;;;;;;5080270;28;20559;-60
2021/12/14 05:28:45;;;;;;;16.58;13.10;;;4.90;84.10;;;;;;5094148;28;20380;-60
2021/12/14 05:31:11;;;;;;;16.17;11.20;;;4.90;84.10;;;;;;5093695;28;20032;-61
2021/12/14 05:33:38;;;;;;;15.68;12.43;;;4.90;84.10;;;;;;5093351;28;20111;-61
2021/12/14 05:36:08;;;;;;;16.52;12.38;;;4.90;84.10;;;;;;5093027;28;20357;-60
2021/12/14 05:38:46;;;;;;;19.45;13.52;;;4.90;84.10;;;;;;5094235;28;20058;-60
2021/12/14 05:44:01;;;;;;;17.60;13.05;;;4.90;84.20;;;;;;5094693;28;20035;-60
2021/12/14 05:46:28;;;;;;;15.70;13.27;;;5.00;84.10;;;;;;5095035;28;20024;-59
2021/12/14 05:49:03;;;;;;;18.70;14.07;;;5.00;84.00;;;;;;5090903;28;20035;-60
2021/12/14 05:51:31;;;;;;;16.58;12.55;;;5.00;84.00;;;;;;5076485;28;20044;-59
2021/12/14 05:53:57;;;;;;;18.33;13.05;;;5.00;84.00;;;;;;5094648;28;20028;-60
2021/12/14 05:56:24;;;;;;;15.82;12.00;;;5.00;83.80;;;;;;5077146;28;20029;-61
2021/12/14 05:58:52;;;;;;;18.20;12.75;;;5.00;83.80;;;;;;5087835;28;20032;-59
2021/12/14 06:01:22;;;;;;;18.92;13.27;;;5.00;83.60;;;;;;5083677;28;20027;-61
2021/12/14 06:04:18;;;;;;;16.27;11.73;;;5.00;83.40;;;;;;5083956;28;20028;-60
2021/12/14 06:06:53;;;;;;;16.85;11.82;;;5.00;83.30;;;;;;5079151;28;20094;-60
2021/12/14 06:09:31;;;;;;;17.40;12.07;;;5.00;83.50;;;;;;5081125;28;20105;-60
2021/12/14 06:12:10;;;;;;;16.42;11.90;;;5.00;83.30;;;;;;5085369;28;20480;-60
2021/12/14 06:14:42;;;;;;;18.05;13.38;;;4.90;83.20;;;;;;5092907;28;20050;-59
2021/12/14 06:17:09;;;;;;;18.38;13.45;;;4.90;83.30;;;;;;5081317;28;20040;-60
2021/12/14 06:19:38;;;;;;;19.63;14.20;;;4.90;83.30;;;;;;5073225;28;20024;-61
2021/12/14 06:22:09;;;;;;;16.17;11.52;;;4.90;83.30;;;;;;5073155;28;20041;-60
2021/12/14 06:24:39;;;;;;;19.43;13.97;;;4.90;83.20;;;;;;5083166;28;20032;-60
2021/12/14 06:27:09;;;;;;;18.40;13.07;;;4.90;83.20;;;;;;5073634;28;20280;-60
2021/12/14 06:29:39;;;;;;;18.67;13.57;;;4.90;83.10;;;;;;5079370;28;20027;-59
2021/12/14 06:32:12;;;;;;;22.40;14.85;;;5.00;83.10;;;;;;5086106;28;20028;-61
2021/12/14 06:34:42;;;;;;;19.13;13.73;;;5.00;83.10;;;;;;5078887;28;20040;-60
2021/12/14 06:40:26;;;;;;;18.75;13.07;;;5.00;83.00;;;;;;5075443;28;20051;-60
2021/12/14 06:43:22;;;;;;;17.70;13.55;;;5.00;82.90;;;;;;5077511;28;20024;-60
2021/12/14 06:45:57;;;;;;;15.10;11.30;;;5.00;83.00;;;;;;5077227;28;20044;-62
2021/12/14 06:48:39;;;;;;;14.77;10.80;;;5.00;83.20;;;;;;5076724;28;20504;-60
2021/12/14 06:51:04;;;;;;;;;;;5.00;83.00;;;;;;5076105;28;20033;-60
2021/12/14 06:53:31;;;;;;;18.67;12.95;;;4.90;82.80;;;;;;5076772;28;19985;-59
2021/12/14 06:56:00;;;;;;;18.90;13.05;;;4.90;83.30;;;;;;5078227;28;20472;-60
2021/12/14 06:58:31;;;;;;;19.15;13.60;;;4.90;83.50;;;;;;5073498;28;20498;-60
2021/12/14 07:01:13;;;;;;;18.50;12.68;;;4.90;83.70;;;;;;5070275;28;20032;-60
2021/12/14 07:04:03;;;;;;;21.98;14.88;;;4.90;83.80;;;;;;5066654;28;20041;-59
2021/12/14 07:06:34;;;;;;;23.55;15.38;;;4.90;83.70;;;;;;5069067;28;20044;-60
2021/12/14 07:09:09;;;;;;;25.23;16.60;;;4.90;83.80;;;;;;5061546;28;20028;-60
2021/12/14 07:11:36;;;;;;;20.27;13.25;;;4.90;83.80;;;;;;5067861;28;20039;-61
2021/12/14 07:14:14;;;;;;;22.50;14.43;;;4.90;84.00;;;;;;5064269;28;20534;-60
2021/12/14 07:16:46;;;;;;;16.88;12.50;;;4.90;84.00;;;;;;5077188;28;20043;-59
2021/12/14 07:19:11;;;;;;;20.73;14.02;;;4.90;84.00;;;;;;5068595;28;20025;-60
2021/12/14 07:21:43;;;;;;;18.75;12.43;;;5.00;84.10;;;;;;5069984;28;20106;-60
2021/12/14 07:24:23;;;;;;;19.52;13.25;;;5.00;84.20;;;;;;5069545;28;20032;-60
2021/12/14 07:27:17;;;;;;;19.27;13.65;;;5.00;84.10;;;;;;5071694;28;20056;-60
2021/12/14 07:29:44;;;;;;;18.17;12.52;;;5.00;84.00;;;;;;5073622;28;20032;-60
2021/12/14 07:32:10;;;;;;;18.38;12.98;;;5.00;84.20;;;;;;5074326;28;20057;-60
2021/12/14 07:34:36;;;;;;;19.88;13.23;;;5.10;84.20;;;;;;5073143;28;20081;-60
2021/12/14 07:37:02;;;;;;;16.83;11.57;;;5.00;84.00;;;;;;5073196;28;20028;-60
2021/12/14 07:39:29;;;;;;;17.60;12.02;;;5.10;84.70;;;;;;5077583;28;20035;-60
2021/12/14 07:41:58;;;;;;;18.40;11.98;;;5.10;83.90;;;;;;5069981;28;20116;-60
2021/12/14 07:44:28;;;;;;;19.77;12.10;;;5.10;83.90;;;;;;5067849;28;20028;-60
2021/12/14 07:47:15;;;;;;;19.60;12.57;;;5.10;83.90;;;;;;5064347;28;20025;-60
2021/12/14 07:49:54;;;;;;;21.45;13.32;;;5.10;83.90;;;;;;5066491;28;20033;-60
2021/12/14 07:52:32;;;;;;;18.13;12.73;;;5.10;84.00;;;;;;5068737;28;20039;-60
2021/12/14 07:55:04;;;;;;;17.55;11.60;;;5.10;84.10;;;;;;5070917;28;20039;-57
2021/12/14 07:57:31;;;;;;;;;;;5.10;84.00;;;;;;5076941;28;20059;-60
2021/12/14 08:00:15;;;;;;;18.15;12.43;;;5.10;83.60;;;;;;5075567;28;21446;-60
2021/12/14 08:02:50;;;;;;;15.50;11.07;;;5.10;84.20;;;;;;5075155;28;20747;-60
2021/12/14 08:05:29;;;;;;;19.08;12.35;;;5.10;84.20;;;;;;5071963;28;20028;-62
2021/12/14 08:08:09;;;;;;;18.38;12.48;;;5.10;84.20;;;;;;5070302;28;20032;-62
2021/12/14 08:10:40;;;;;;;17.85;12.75;;;5.20;84.00;;;;;;5070831;28;20059;-62
2021/12/14 08:13:24;;;;;;;19.00;13.23;;;5.10;84.00;;;;;;5069738;28;20755;-62
2021/12/14 08:15:55;;;;;;;18.35;12.80;;;5.10;84.00;;;;;;5066188;28;20061;-63
2021/12/14 08:18:28;;;;;;;15.40;12.07;;;5.20;84.20;;;;;;5069113;28;20391;-61
2021/12/14 08:21:02;;;;;;;16.75;12.13;;;5.20;84.20;;;;;;5072480;28;20422;-62
2021/12/14 08:23:35;;;;;;;16.48;11.27;;;5.20;84.70;;;;;;5068709;28;20511;-62
2021/12/14 08:26:07;;;;;;;15.48;11.32;;;5.20;84.20;;;;;;5076077;28;20102;-62
2021/12/14 08:28:52;;;;;;;;;;;5.20;84.20;;;;;;5067850;28;20059;-61
2021/12/14 08:31:20;;;;;;;13.93;10.80;;;5.10;83.70;;;;;;5061638;28;19973;-62
2021/12/14 08:33:54;;;;;;;15.63;10.90;;;5.10;84.20;;;;;;5067989;28;20028;-61
2021/12/14 08:36:20;;;;;;;14.77;10.57;;;5.20;84.10;;;;;;5066959;28;20028;-61
2021/12/14 08:38:46;;;;;;;17.30;11.75;;;5.20;84.10;;;;;;5062850;28;20032;-61
2021/12/14 08:41:20;;;;;;;16.23;10.85;;;5.20;84.10;;;;;;5072504;28;20092;-59
2021/12/14 08:43:50;;;;;;;18.55;12.55;;;5.20;84.00;;;;;;5070096;28;20036;-61
2021/12/14 08:46:29;;;;;;;14.82;11.07;;;5.20;84.00;;;;;;5074757;28;20025;-62
2021/12/14 08:48:59;;;;;;;19.15;12.85;;;5.20;84.10;;;;;;5068898;28;20070;-62
2021/12/14 08:51:27;;;;;;;13.70;10.15;;;5.20;84.00;;;;;;5066713;28;20028;-61
2021/12/14 08:54:02;;;;;;;16.30;10.10;;;5.30;83.90;;;;;;5070858;28;20031;-61
2021/12/14 08:56:33;;;;;;;15.15;10.80;;;5.30;83.70;;;;;;5068048;28;20036;-62
2021/12/14 08:58:59;;;;;;;18.73;11.63;;;5.30;83.50;;;;;;5070179;28;20024;-61
2021/12/14 09:01:29;;;;;;;14.80;10.45;;;5.20;83.50;;;;;;5066794;28;20403;-61
2021/12/14 09:04:21;;;;;;;16.67;12.00;;;5.30;83.60;;;;;;5063897;28;20032;-62
2021/12/14 09:06:50;;;;;;;14.20;11.18;;;5.30;83.40;;;;;;5069654;28;20538;-61
2021/12/14 09:09:19;;;;;;;15.38;10.45;;;5.20;83.30;;;;;;5068665;28;20115;-60
2021/12/14 09:11:51;;;;;;;13.02;9.85;;;5.20;83.50;;;;;;5069143;28;20542;-61
2021/12/14 09:14:17;;;;;;;17.30;10.55;;;5.20;83.50;;;;;;5069455;28;20027;-61
2021/12/14 09:16:49;;;;;;;14.82;10.88;;;5.20;83.50;;;;;;5070773;28;20024;-61
2021/12/14 09:19:23;;;;;;;15.27;10.98;;;5.20;83.30;;;;;;5073747;28;20078;-60
2021/12/14 09:21:53;;;;;;;15.60;11.50;;;5.20;83.30;;;;;;5064980;28;20614;-62
2021/12/14 09:24:23;;;;;;;16.70;11.77;;;5.20;83.30;;;;;;5063997;28;20028;-62
2021/12/14 09:26:54;;;;;;;15.05;10.18;;;5.30;83.50;;;;;;5068408;28;20035;-61
2021/12/14 09:29:23;;;;;;;15.35;11.15;;;5.30;83.30;;;;;;5069233;28;20029;-62
2021/12/14 09:31:52;;;;;;;15.93;10.18;;;5.30;83.20;;;;;;5052841;28;20025;-62
2021/12/14 09:34:22;;;;;;;13.02;10.20;;;5.40;83.10;;;;;;5071299;28;20032;-62
2021/12/14 09:36:50;;;;;;;15.07;11.07;;;5.40;82.80;;;;;;5061876;28;20070;-62
2021/12/14 09:39:29;;;;;;;17.17;10.80;;;5.40;82.80;;;;;;5067638;28;21017;-60
2021/12/14 09:41:57;;;;;;;13.02;9.35;;;5.40;82.90;;;;;;5064916;28;20036;-61
2021/12/14 09:44:26;;;;;;;14.27;10.18;;;5.40;82.70;;;;;;5057844;28;20028;-61
2021/12/14 09:46:55;;;;;;;17.42;11.85;;;5.40;82.60;;;;;;5064097;28;20032;-61
2021/12/14 09:49:21;;;;;;;16.90;10.95;;;5.40;82.60;;;;;;5064590;28;20415;-62
2021/12/14 09:51:59;;;;;;;16.50;11.15;;;5.40;82.50;;;;;;5069532;28;20040;-62
2021/12/14 09:54:28;;;;;;;15.20;10.40;;;5.40;82.60;;;;;;5072844;28;20032;-62
2021/12/14 09:56:59;;;;;;;16.42;10.60;;;5.50;82.70;;;;;;5056446;28;20028;-62
2021/12/14 09:59:25;;;;;;;15.52;10.25;;;5.50;82.70;;;;;;5063884;28;20070;-62
2021/12/14 10:02:07;;;;;;;13.70;10.18;;;5.50;82.50;;;;;;5059169;28;20041;-61
2021/12/14 10:04:40;;;;;;;15.30;10.68;;;5.50;82.60;;;;;;5063386;28;20024;-62
2021/12/14 10:07:08;;;;;;;13.93;10.32;;;5.50;82.80;;;;;;5064453;28;21012;-62
2021/12/14 10:09:41;;;;;;;16.20;9.98;;;5.50;82.90;;;;;;5064516;28;20417;-61
2021/12/14 10:14:52;;;;;;;11.85;8.18;;;5.50;82.90;;;;;;5060981;28;20039;-61
2021/12/14 10:17:21;;;;;;;12.77;8.98;;;5.50;82.90;;;;;;5066948;28;20107;-60
2021/12/14 10:19:48;;;;;;;13.15;8.88;;;5.50;82.80;;;;;;5067407;28;20457;-60
2021/12/14 10:22:23;;;;;;;15.85;10.40;;;5.50;82.80;;;;;;5070980;28;20527;-60
2021/12/14 10:24:54;;;;;;;13.45;9.77;;;5.50;82.80;;;;;;5068018;28;20499;-60
2021/12/14 10:27:22;;;;;;;13.13;9.37;;;5.50;82.80;;;;;;5059895;28;20150;-61
2021/12/14 10:29:48;;;;;;;16.27;10.50;;;5.50;82.90;;;;;;5063280;28;20086;-59
2021/12/14 10:32:20;;;;;;;10.32;7.63;;;5.60;82.80;;;;;;5070414;28;20040;-62
2021/12/14 10:34:51;;;;;;;12.95;8.85;;;5.60;82.60;;;;;;5069144;28;20028;-61
2021/12/14 10:37:24;;;;;;;10.68;7.97;;;5.50;82.50;;;;;;5069415;28;20479;-61
2021/12/14 10:43:12;;;;;;;12.90;7.97;;;5.50;82.30;;;;;;5065739;28;20089;-60
2021/12/14 10:45:41;;;;;;;9.90;7.20;;;5.50;82.40;;;;;;5065469;28;20073;-60
2021/12/14 10:48:08;;;;;;;10.02;7.57;;;5.50;82.30;;;;;;5067881;28;20032;-61
2021/12/14 10:50:36;;;;;;;12.45;7.63;;;5.50;82.20;;;;;;5071499;28;20620;-60
2021/12/14 10:53:05;;;;;;;10.63;7.43;;;5.50;82.30;;;;;;5071703;28;20109;-60
2021/12/14 10:55:39;;;;;;;11.00;7.35;;;5.50;82.20;;;;;;5070098;28;20115;-60
2021/12/14 10:58:07;;;;;;;12.18;8.40;;;5.50;82.10;;;;;;5057902;28;20089;-61
2021/12/14 11:01:02;;;;;;;9.88;6.95;;;5.50;82.00;;;;;;5063019;28;20071;-61
2021/12/14 11:03:35;;;;;;;10.57;7.78;;;5.50;81.80;;;;;;5058605;28;22269;-60
2021/12/14 11:06:06;;;;;;;11.00;7.32;;;5.50;81.90;;;;;;5067522;28;20529;-60
2021/12/14 11:08:46;;;;;;;11.53;8.43;;;5.50;81.80;;;;;;5061182;28;20024;-60
2021/12/14 11:11:18;;;;;;;11.60;7.70;;;5.50;81.70;;;;;;5055435;28;20039;-60
2021/12/14 11:13:52;;;;;;;9.02;7.03;;;5.50;81.70;;;;;;5063835;28;20139;-60
2021/12/14 11:16:33;;;;;;;10.05;7.40;;;5.40;81.70;;;;;;5068653;28;20028;-58
2021/12/14 11:19:04;;;;;;;11.02;7.93;;;5.50;81.90;;;;;;5068958;28;20032;-59
2021/12/14 11:21:30;;;;;;;11.32;8.05;;;5.40;81.80;;;;;;5071947;28;20959;-60
2021/12/14 11:23:56;;;;;;;11.38;8.20;;;5.40;81.90;;;;;;5074236;28;20032;-60
2021/12/14 11:26:35;;;;;;;10.57;8.07;;;5.40;81.90;;;;;;5072076;28;20028;-59
2021/12/14 11:29:10;;;;;;;10.90;7.47;;;5.40;81.80;;;;;;5069081;28;20035;-58
2021/12/14 11:31:41;;;;;;;11.10;8.45;;;5.40;81.90;;;;;;5075186;28;20029;-59
2021/12/14 11:34:11;;;;;;;10.45;8.13;;;5.40;81.90;;;;;;5073403;28;20029;-60
2021/12/14 11:36:51;;;;;;;11.50;7.55;;;5.40;82.00;;;;;;5081803;28;20127;-60
2021/12/14 11:39:26;;;;;;;11.73;7.80;;;5.40;82.10;;;;;;5078844;28;20063;-59
2021/12/14 11:41:56;;;;;;;9.88;7.53;;;5.40;82.20;;;;;;5074000;28;20021;-60
2021/12/14 11:44:27;;;;;;;11.07;7.50;;;5.40;82.10;;;;;;5077044;28;20408;-59
2021/12/14 11:46:56;;;;;;;10.63;7.60;;;5.40;82.10;;;;;;5078078;28;20020;-60
2021/12/14 11:49:38;;;;;;;10.88;8.45;;;5.40;82.00;;;;;;5075804;28;20028;-60
2021/12/14 11:52:04;;;;;;;10.52;8.25;;;5.40;82.00;;;;;;5074060;28;20085;-60
2021/12/14 11:54:47;;;;;;;14.85;9.50;;;5.40;81.90;;;;;;5080323;28;20031;-60
2021/12/14 11:57:15;;;;;;;12.75;8.68;;;5.40;81.90;;;;;;5067776;28;20415;-60
2021/12/14 11:59:41;;;;;;;11.48;9.38;;;5.40;82.00;;;;;;5068142;28;20051;-59
2021/12/14 12:02:08;;;;;;;16.17;10.90;;;5.40;82.00;;;;;;5064140;28;20476;-60
2021/12/14 12:04:36;;;;;;;11.77;8.90;;;5.40;81.90;;;;;;5065735;28;20020;-60
2021/12/14 12:09:41;;;;;;;17.30;10.43;;;5.40;81.80;;;;;;5068352;28;20111;-60
2021/12/14 12:12:10;;;;;;;16.98;12.07;;;5.40;81.80;;;;;;5069442;28;20032;-61
2021/12/14 12:14:38;;;;;;;14.75;11.57;;;5.30;81.70;;;;;;5064460;28;20097;-61
2021/12/14 12:17:31;;;;;;;18.67;12.23;;;5.30;81.90;;;;;;5064240;28;20084;-61
2021/12/14 12:20:13;;;;;;;15.38;11.27;;;5.30;81.80;;;;;;5063644;28;20032;-60
2021/12/14 12:22:54;;;;;;;21.55;15.02;;;5.30;81.80;;;;;;5063398;28;20054;-61
2021/12/14 12:25:28;;;;;;;15.65;10.73;;;5.30;81.80;;;;;;5060500;28;20111;-61
2021/12/14 12:28:15;;;;;;;16.73;11.27;;;5.30;81.70;;;;;;5071590;28;20063;-60
2021/12/14 12:31:09;;;;;;;16.98;12.23;;;5.30;81.50;;;;;;5064936;28;20131;-61
2021/12/14 12:33:48;;;;;;;16.48;10.50;;;5.30;81.50;;;;;;5059829;28;20028;-61
2021/12/14 12:36:21;;;;;;;17.33;12.18;;;5.30;81.70;;;;;;5060407;28;20120;-59
2021/12/14 12:38:53;;;;;;;18.65;11.15;;;5.30;81.80;;;;;;5069894;28;20090;-59
2021/12/14 12:41:36;;;;;;;;;;;5.20;81.70;;;;;;5052709;28;20160;-60
2021/12/14 12:44:30;;;;;;;18.05;13.48;;;5.20;81.80;;;;;;5057972;28;19912;-61
2021/12/14 12:47:08;;;;;;;15.63;12.00;;;5.20;81.60;;;;;;5063395;28;20027;-61
2021/12/14 12:49:55;;;;;;;19.73;13.13;;;5.20;81.60;;;;;;5060873;28;20020;-61
2021/12/14 12:52:29;;;;;;;18.25;12.13;;;5.30;81.70;;;;;;5067086;28;20028;-60
2021/12/14 12:55:11;;;;;;;16.45;10.80;;;5.20;81.70;;;;;;5069370;28;20033;-61
2021/12/14 12:58:13;;;;;;;17.52;12.20;;;5.20;81.70;;;;;;5062101;28;20090;-60
2021/12/14 13:00:51;;;;;;;17.15;10.93;;;5.20;81.60;;;;;;5004857;28;20033;-58
2021/12/14 13:03:24;;;;;;;18.88;12.85;;;5.20;81.90;;;;;;5058398;28;20033;-60
2021/12/14 13:05:54;;;;;;;18.02;11.65;;;5.20;81.90;;;;;;5070610;28;20111;-61
2021/12/14 13:08:47;;;;;;;17.92;13.23;;;5.20;82.00;;;;;;5058379;28;20142;-61
2021/12/14 13:11:13;;;;;;;16.73;11.10;;;5.20;81.90;;;;;;5059756;28;20024;-61
2021/12/14 13:13:43;;;;;;;18.38;11.65;;;5.20;82.10;;;;;;5058883;28;20032;-59
2021/12/14 13:16:08;;;;;;;21.63;13.13;;;5.30;82.10;;;;;;5063881;28;20675;-61
2021/12/14 13:18:34;;;;;;;22.90;15.50;;;5.20;82.10;;;;;;5061735;28;20028;-60
2021/12/14 13:21:17;;;;;;;16.25;12.35;;;5.20;82.10;;;;;;5060026;28;20093;-61
2021/12/14 13:24:00;;;;;;;16.83;11.63;;;5.30;82.10;;;;;;5070003;28;20123;-61
2021/12/14 13:26:28;;;;;;;20.25;14.13;;;5.30;81.90;;;;;;5068085;28;20035;-61
2021/12/14 13:29:19;;;;;;;15.93;10.88;;;5.20;82.00;;;;;;5056222;28;20074;-62
2021/12/14 13:31:56;;;;;;;16.02;11.70;;;5.20;82.00;;;;;;5044661;28;20121;-58
2021/12/14 13:34:30;;;;;;;17.88;12.25;;;5.20;82.20;;;;;;5059862;28;22187;-58
2021/12/14 13:36:57;;;;;;;15.50;10.30;;;5.20;82.30;;;;;;5067512;28;21604;-61
2021/12/14 13:39:24;;;;;;;18.08;11.38;;;5.20;82.50;;;;;;5058083;28;20032;-61
2021/12/14 13:41:58;;;;;;;15.30;10.80;;;5.10;82.50;;;;;;5067519;28;20107;-61
2021/12/14 13:44:40;;;;;;;16.25;10.95;;;5.10;82.60;;;;;;5066933;28;20028;-60
2021/12/14 13:47:09;;;;;;;16.10;11.10;;;5.10;82.70;;;;;;5060188;28;20039;-61
2021/12/14 13:49:36;;;;;;;16.75;11.32;;;5.10;83.00;;;;;;5060270;28;20039;-61
2021/12/14 13:52:04;;;;;;;19.33;13.48;;;5.10;83.10;;;;;;5052334;28;20040;-59
2021/12/14 13:54:30;;;;;;;16.05;10.95;;;5.10;83.20;;;;;;5053436;28;20032;-59
2021/12/14 13:56:55;;;;;;;18.00;12.50;;;5.10;83.20;;;;;;5056604;28;20043;-59